Time;durP1;ratioP1;P1;durP2;ratioP2;P2;SDS_P1;SDS_P2;PMS_P1;PMS_P2;Temp;Humidity;BMP_temperature;BMP_pressure;BME280_temperature;BME280_humidity;BME280_pressure;Samples;Min_cycle;Max_cycle;Signal;HPM_P1;HPM_P2
2022/01/14 00:02:49;;;;;;;23.60;19.77;;;2.90;99.90;;;;;;10457974;28;20213;-78
2022/01/14 00:07:53;;;;;;;24.53;21.97;;;2.80;99.90;;;;;;10456661;28;20265;-78
2022/01/14 00:13:04;;;;;;;27.00;23.07;;;2.80;99.90;;;;;;10457206;28;20217;-78
2022/01/14 00:18:06;;;;;;;27.40;22.67;;;2.80;99.90;;;;;;10456681;28;20569;-78
2022/01/14 00:23:09;;;;;;;25.00;21.50;;;2.80;99.90;;;;;;10457196;28;20279;-78
2022/01/14 00:33:31;;;;;;;24.67;22.00;;;2.80;99.90;;;;;;10455204;28;20223;-78
2022/01/14 00:38:34;;;;;;;24.83;22.20;;;2.80;99.90;;;;;;10470743;28;20193;-78
2022/01/14 00:43:39;;;;;;;26.10;21.83;;;2.90;99.90;;;;;;10456467;28;20216;-78
2022/01/14 00:48:41;;;;;;;27.77;21.87;;;2.90;99.90;;;;;;10463328;28;20280;-78
2022/01/14 00:53:44;;;;;;;29.20;22.70;;;2.90;99.90;;;;;;10521954;22;20291;-79
2022/01/14 01:04:06;;;;;;;25.30;22.10;;;2.80;99.90;;;;;;10494061;28;20203;-78
2022/01/14 01:09:12;;;;;;;27.87;24.07;;;2.80;99.90;;;;;;10480146;28;20227;-81
2022/01/14 01:14:19;;;;;;;28.97;24.70;;;2.70;99.90;;;;;;10498927;28;20215;-80
2022/01/14 01:19:21;;;;;;;28.27;24.33;;;2.60;99.90;;;;;;10503846;28;20192;-81
2022/01/14 01:24:24;;;;;;;29.90;26.63;;;2.60;99.90;;;;;;10472070;28;20203;-81
2022/01/14 01:29:44;;;;;;;28.63;25.13;;;2.70;99.90;;;;;;10499978;28;20195;-81
2022/01/14 01:34:49;;;;;;;27.60;24.13;;;2.80;99.90;;;;;;10484687;28;20228;-81
2022/01/14 01:39:52;;;;;;;27.40;23.60;;;2.80;99.90;;;;;;10493966;28;20188;-77
2022/01/14 01:44:54;;;;;;;27.43;23.53;;;2.80;99.90;;;;;;10493430;28;20213;-79
2022/01/14 01:49:56;;;;;;;28.03;23.57;;;2.70;99.90;;;;;;10478510;28;20212;-79
2022/01/14 01:55:00;;;;;;;27.43;24.60;;;2.70;99.90;;;;;;10479604;28;20248;-78
2022/01/14 02:00:03;;;;;;;28.40;24.00;;;2.60;99.90;;;;;;10484718;28;20196;-78
2022/01/14 02:05:07;;;;;;;23.20;18.90;;;2.60;99.90;;;;;;10500637;28;20557;-77
2022/01/14 02:10:11;;;;;;;29.90;24.63;;;2.60;99.90;;;;;;10484497;28;20204;-79
2022/01/14 02:15:26;;;;;;;29.43;25.13;;;2.60;99.90;;;;;;10502879;28;20216;-79
2022/01/14 02:25:49;;;;;;;28.97;24.43;;;2.60;99.90;;;;;;10467693;28;20645;-77
2022/01/14 02:30:51;;;;;;;27.17;23.67;;;2.70;99.90;;;;;;10484266;28;20212;-78
2022/01/14 02:35:55;;;;;;;28.40;24.17;;;2.70;99.90;;;;;;10501069;28;20201;-79
2022/01/14 02:40:58;;;;;;;28.60;23.17;;;2.60;99.90;;;;;;10466482;28;20299;-77
2022/01/14 02:46:00;;;;;;;29.67;24.63;;;2.50;99.90;;;;;;10482545;28;20215;-79
2022/01/14 02:51:10;;;;;;;29.83;24.70;;;2.50;99.90;;;;;;10501463;28;20235;-77
2022/01/14 02:56:15;;;;;;;31.30;24.40;;;2.60;99.90;;;;;;10482662;28;20319;-78
2022/01/14 03:01:19;;;;;;;28.20;24.70;;;2.60;99.90;;;;;;10500010;28;20205;-77
2022/01/14 03:06:23;;;;;;;27.77;24.03;;;2.60;99.90;;;;;;10482124;28;20613;-79
2022/01/14 03:11:32;;;;;;;28.80;24.77;;;2.50;99.90;;;;;;10500266;28;20244;-79
2022/01/14 03:16:39;;;;;;;28.30;24.33;;;2.50;99.90;;;;;;10500697;28;20228;-79
2022/01/14 03:21:43;;;;;;;28.80;24.10;;;2.40;99.90;;;;;;10507222;28;20220;-79
2022/01/14 03:26:46;;;;;;;31.30;24.97;;;2.40;99.90;;;;;;10504145;28;20192;-79
2022/01/14 03:31:49;;;;;;;28.47;24.07;;;2.50;99.90;;;;;;10481355;28;20240;-78
2022/01/14 03:36:53;;;;;;;30.83;24.97;;;2.60;99.90;;;;;;10481488;28;20201;-79
2022/01/14 03:41:55;;;;;;;28.13;25.00;;;2.60;99.90;;;;;;10499302;28;20212;-79
2022/01/14 03:46:57;;;;;;;30.40;24.10;;;2.60;99.90;;;;;;10498921;28;20576;-77
2022/01/14 03:52:00;;;;;;;28.87;24.43;;;2.60;99.90;;;;;;10478977;28;20240;-77
2022/01/14 03:57:02;;;;;;;29.30;24.90;;;2.60;99.90;;;;;;10480725;28;20727;-77
2022/01/14 04:02:05;;;;;;;26.87;23.93;;;2.50;99.90;;;;;;10480567;28;20205;-78
2022/01/14 04:07:08;;;;;;;27.50;23.70;;;2.50;99.90;;;;;;10478860;28;20617;-78
2022/01/14 04:12:17;;;;;;;28.43;25.13;;;2.50;99.90;;;;;;10479310;28;20240;-79
2022/01/14 04:17:22;;;;;;;26.70;23.57;;;2.50;99.90;;;;;;10499645;28;20195;-77
2022/01/14 04:22:25;;;;;;;28.30;23.30;;;2.50;99.90;;;;;;10481987;28;20220;-78
2022/01/14 04:27:27;;;;;;;28.50;25.40;;;2.40;99.90;;;;;;10497820;28;20189;-79
2022/01/14 04:32:29;;;;;;;28.73;25.73;;;2.40;99.90;;;;;;10479503;28;20208;-78
2022/01/14 04:37:33;;;;;;;30.03;25.47;;;2.40;99.90;;;;;;10479862;28;20201;-78
2022/01/14 04:42:36;;;;;;;31.27;26.70;;;2.40;99.90;;;;;;10463053;28;20308;-77
2022/01/14 04:47:45;;;;;;;26.40;23.60;;;2.40;99.90;;;;;;10498274;28;20193;-78
2022/01/14 04:52:49;;;;;;;29.93;24.80;;;2.40;99.90;;;;;;10497182;28;20305;-79
2022/01/14 04:57:52;;;;;;;28.40;25.20;;;2.40;99.90;;;;;;10460620;28;20288;-80
2022/01/14 05:02:55;;;;;;;29.43;24.50;;;2.40;99.90;;;;;;10475387;28;20209;-79
2022/01/14 05:07:59;;;;;;;27.90;24.50;;;2.40;99.90;;;;;;10498207;28;20224;-78
2022/01/14 05:13:02;;;;;;;28.40;24.80;;;2.30;99.90;;;;;;10499136;28;20593;-78
2022/01/14 05:18:04;;;;;;;28.33;24.43;;;2.30;99.90;;;;;;10480484;28;20207;-80
2022/01/14 05:23:07;;;;;;;30.63;24.97;;;2.30;99.90;;;;;;10481190;28;20217;-78
2022/01/14 05:28:10;;;;;;;25.13;22.20;;;2.30;99.90;;;;;;10480790;28;20208;-80
2022/01/14 05:33:12;;;;;;;24.07;21.60;;;2.30;99.90;;;;;;10497370;28;20208;-79
2022/01/14 05:38:15;;;;;;;23.73;21.30;;;2.40;99.90;;;;;;10495428;28;20656;-79
2022/01/14 05:43:17;;;;;;;22.37;20.07;;;2.40;99.90;;;;;;10460264;28;20312;-79
2022/01/14 05:48:19;;;;;;;21.13;18.90;;;2.40;99.90;;;;;;10494920;28;20259;-78
2022/01/14 05:53:23;;;;;;;20.83;18.60;;;2.50;99.90;;;;;;10492461;28;20235;-78
2022/01/14 05:58:25;;;;;;;19.10;17.03;;;2.40;99.90;;;;;;10474943;28;20271;-79
2022/01/14 06:03:27;;;;;;;22.97;20.07;;;2.40;99.90;;;;;;10495014;28;20606;-79
2022/01/14 06:08:30;;;;;;;22.97;20.10;;;2.40;99.90;;;;;;10495815;28;20200;-79
2022/01/14 06:13:32;;;;;;;23.00;20.60;;;2.40;99.90;;;;;;10495449;28;20278;-79
2022/01/14 06:18:35;;;;;;;22.13;18.40;;;2.30;99.90;;;;;;10477110;28;20189;-80
2022/01/14 06:23:39;;;;;;;23.20;19.10;;;2.30;99.90;;;;;;10477887;28;20308;-79
2022/01/14 06:28:42;;;;;;;20.70;18.50;;;2.30;99.90;;;;;;10494996;28;20602;-78
2022/01/14 06:33:44;;;;;;;19.37;17.37;;;2.30;99.90;;;;;;10452946;28;20267;-77
2022/01/14 06:38:48;;;;;;;20.20;17.93;;;2.30;99.90;;;;;;10500046;28;20231;-77
2022/01/14 06:43:50;;;;;;;22.93;19.27;;;2.30;99.90;;;;;;10484115;28;20556;-77
2022/01/14 06:48:52;;;;;;;24.83;20.77;;;2.30;99.90;;;;;;10483626;28;20185;-78
2022/01/14 06:53:55;;;;;;;19.63;17.50;;;2.30;99.90;;;;;;10487191;28;20778;-80
2022/01/14 06:58:57;;;;;;;19.40;17.40;;;2.40;99.90;;;;;;10508805;28;20228;-80
2022/01/14 07:03:59;;;;;;;19.83;17.10;;;2.40;99.90;;;;;;10489540;28;20223;-80
2022/01/14 07:09:03;;;;;;;15.33;13.20;;;2.30;99.90;;;;;;10474960;28;20192;-80
2022/01/14 07:14:07;;;;;;;20.30;16.90;;;2.30;99.90;;;;;;10491529;28;20237;-80
2022/01/14 07:19:09;;;;;;;17.63;15.87;;;2.30;99.90;;;;;;10492233;28;20245;-80
2022/01/14 07:24:13;;;;;;;16.50;14.80;;;2.30;99.90;;;;;;10487403;28;20284;-80
2022/01/14 07:29:16;;;;;;;16.03;14.33;;;2.40;99.90;;;;;;10507308;28;20196;-79
2022/01/14 07:34:18;;;;;;;15.70;14.17;;;2.40;99.90;;;;;;10467610;28;20736;-78
2022/01/14 07:39:23;;;;;;;12.10;10.80;;;2.50;99.90;;;;;;10503166;28;20279;-80
2022/01/14 07:44:25;;;;;;;11.40;10.03;;;2.40;99.90;;;;;;10503146;28;20212;-79
2022/01/14 07:49:27;;;;;;;12.97;11.40;;;2.40;99.90;;;;;;10486398;28;20627;-79
2022/01/14 07:54:31;;;;;;;16.10;14.40;;;2.40;99.90;;;;;;10484413;28;20224;-80
2022/01/14 07:59:34;;;;;;;15.43;13.27;;;2.40;99.90;;;;;;10466743;28;20199;-80
2022/01/14 08:04:37;;;;;;;13.13;11.73;;;2.40;99.90;;;;;;10483987;28;20209;-79
2022/01/14 08:09:43;;;;;;;14.17;12.40;;;2.40;99.90;;;;;;10483811;28;20206;-80
2022/01/14 08:14:45;;;;;;;14.33;12.80;;;2.40;99.90;;;;;;10466824;28;20221;-80
2022/01/14 08:19:49;;;;;;;15.77;14.07;;;2.40;99.90;;;;;;10466833;28;20287;-80
2022/01/14 08:24:52;;;;;;;19.53;14.83;;;2.40;99.90;;;;;;10478766;28;20598;-81
2022/01/14 08:29:55;;;;;;;16.90;15.03;;;2.50;99.90;;;;;;10484023;28;20288;-81
2022/01/14 08:34:57;;;;;;;17.60;15.20;;;2.50;99.90;;;;;;10466702;28;20226;-79
2022/01/14 08:40:00;;;;;;;18.33;16.47;;;2.50;99.90;;;;;;10497635;28;20611;-77
2022/01/14 08:45:03;;;;;;;18.00;15.90;;;2.60;99.90;;;;;;10479962;28;20212;-78
2022/01/14 08:50:06;;;;;;;18.23;15.90;;;2.70;99.90;;;;;;10479474;28;20211;-79
2022/01/14 08:55:10;;;;;;;17.23;15.53;;;2.80;99.90;;;;;;10497187;28;20224;-80
2022/01/14 09:00:13;;;;;;;16.70;14.90;;;2.90;99.90;;;;;;10479239;28;20196;-80
2022/01/14 09:05:15;;;;;;;16.67;14.43;;;3.00;99.90;;;;;;10463237;28;20236;-78
2022/01/14 09:10:20;;;;;;;16.23;14.63;;;3.10;99.90;;;;;;10496918;28;20206;-79
2022/01/14 09:15:22;;;;;;;15.43;13.50;;;3.20;99.90;;;;;;10461265;28;20230;-78
2022/01/14 09:20:24;;;;;;;15.40;13.80;;;3.40;99.90;;;;;;10477977;28;20204;-78
2022/01/14 09:25:27;;;;;;;14.87;13.37;;;3.50;99.90;;;;;;10460804;28;20223;-77
2022/01/14 09:30:30;;;;;;;14.07;12.57;;;3.60;99.90;;;;;;10495664;28;20224;-77
2022/01/14 09:35:32;;;;;;;15.80;14.20;;;3.80;99.90;;;;;;10495599;28;20220;-77
2022/01/14 09:40:37;;;;;;;18.83;15.33;;;3.90;99.90;;;;;;10476918;28;20234;-78
2022/01/14 09:45:39;;;;;;;16.20;14.50;;;4.00;99.90;;;;;;10495242;28;20354;-78
2022/01/14 09:50:42;;;;;;;17.57;14.70;;;4.10;99.90;;;;;;10474806;28;20188;-78
2022/01/14 09:55:46;;;;;;;18.60;16.67;;;4.20;99.90;;;;;;10458939;28;20773;-78
2022/01/14 10:00:48;;;;;;;19.67;17.67;;;4.20;99.90;;;;;;10494855;28;20258;-77
2022/01/14 10:05:52;;;;;;;19.73;17.83;;;4.30;99.90;;;;;;10459513;28;20322;-78
2022/01/14 10:10:59;;;;;;;21.30;19.10;;;4.40;99.90;;;;;;10462991;28;20192;-79
2022/01/14 10:16:04;;;;;;;20.97;18.77;;;4.40;99.90;;;;;;10484663;28;20219;-79
2022/01/14 10:21:07;;;;;;;21.50;19.30;;;4.50;99.90;;;;;;10504805;28;20224;-79
2022/01/14 10:26:11;;;;;;;24.33;21.60;;;4.50;99.90;;;;;;10485293;28;20649;-78
2022/01/14 10:31:14;;;;;;;24.07;21.57;;;4.60;99.90;;;;;;10466477;28;20315;-77
2022/01/14 10:36:21;;;;;;;23.73;21.23;;;4.60;99.90;;;;;;10500397;28;20227;-80
2022/01/14 10:41:29;;;;;;;25.47;22.93;;;4.70;99.90;;;;;;10500569;28;20225;-78
2022/01/14 10:46:31;;;;;;;25.40;22.73;;;4.80;99.90;;;;;;10500682;28;20204;-78
2022/01/14 10:51:33;;;;;;;27.90;24.80;;;4.80;99.90;;;;;;10465546;28;20263;-78
2022/01/14 10:56:37;;;;;;;29.63;25.23;;;4.90;99.90;;;;;;10483043;28;20275;-79
2022/01/14 11:01:39;;;;;;;30.80;26.37;;;4.90;99.90;;;;;;10481240;28;20562;-78
2022/01/14 11:06:43;;;;;;;26.63;23.90;;;5.00;99.90;;;;;;10499006;28;20275;-76
2022/01/14 11:11:48;;;;;;;26.77;24.07;;;5.10;99.90;;;;;;10480746;28;20216;-76
2022/01/14 11:16:50;;;;;;;27.20;23.47;;;5.20;99.90;;;;;;10498897;28;20219;-77
2022/01/14 11:27:16;;;;;;;29.27;24.40;;;5.30;99.90;;;;;;10498823;28;20184;-78
2022/01/14 11:32:22;;;;;;;27.77;24.50;;;5.40;99.90;;;;;;10463669;28;20262;-78
2022/01/14 11:37:37;;;;;;;27.73;24.00;;;5.40;99.90;;;;;;10497452;28;20197;-77
2022/01/14 11:42:42;;;;;;;28.37;23.50;;;5.50;99.90;;;;;;10497782;28;20208;-77
2022/01/14 11:48:01;;;;;;;25.90;23.30;;;5.50;99.90;;;;;;10497259;28;20769;-79
2022/01/14 11:53:32;;;;;;;26.97;22.30;;;5.50;99.90;;;;;;10479429;28;20227;-79
2022/01/14 11:58:36;;;;;;;24.87;22.27;;;5.60;99.90;;;;;;10478854;28;20203;-78
2022/01/14 12:03:53;;;;;;;26.03;23.30;;;5.70;99.90;;;;;;10480746;28;20212;-78
2022/01/14 12:09:03;;;;;;;27.47;24.57;;;5.70;99.90;;;;;;10484229;28;20200;-78
2022/01/14 12:14:07;;;;;;;27.23;24.37;;;5.70;99.90;;;;;;10514448;28;20645;-78
2022/01/14 12:19:11;;;;;;;27.20;23.97;;;5.70;99.90;;;;;;10486113;28;20245;-77
2022/01/14 12:24:30;;;;;;;26.90;24.00;;;5.70;99.90;;;;;;10484057;28;20688;-78
2022/01/14 12:29:35;;;;;;;28.30;24.90;;;5.70;99.90;;;;;;10484154;28;20200;-78
2022/01/14 12:34:42;;;;;;;25.67;23.07;;;5.70;99.90;;;;;;10510440;28;20267;-77
2022/01/14 12:39:46;;;;;;;30.00;23.97;;;5.70;99.90;;;;;;10495968;28;20558;-78
2022/01/14 12:44:52;;;;;;;28.00;25.00;;;5.80;99.90;;;;;;10477500;28;20208;-79
2022/01/14 12:49:54;;;;;;;27.33;24.37;;;5.90;99.90;;;;;;10482640;28;20223;-79
2022/01/14 12:54:57;;;;;;;39.53;35.23;;;5.90;99.90;;;;;;10515711;22;20311;-78
2022/01/14 13:00:04;;;;;;;26.30;23.50;;;6.00;99.90;;;;;;10497882;28;20201;-78
2022/01/14 13:05:08;;;;;;;25.40;22.80;;;6.00;99.90;;;;;;10501653;28;20247;-78
2022/01/14 13:10:13;;;;;;;25.63;22.93;;;6.10;99.90;;;;;;10479324;28;20200;-78
2022/01/14 13:15:20;;;;;;;25.13;21.90;;;6.20;99.90;;;;;;10474865;28;20226;-78
2022/01/14 13:20:35;;;;;;;24.87;22.17;;;6.20;99.90;;;;;;10434294;28;20653;-77
2022/01/14 13:25:42;;;;;;;24.67;21.50;;;6.30;99.90;;;;;;10507855;28;20212;-79
2022/01/14 13:30:46;;;;;;;25.83;22.17;;;6.30;99.90;;;;;;10487601;28;20200;-78
2022/01/14 13:35:49;;;;;;;27.90;25.00;;;6.30;99.90;;;;;;10518225;28;20227;-78
2022/01/14 13:40:53;;;;;;;29.73;24.40;;;6.30;99.90;;;;;;10503930;28;20274;-79
2022/01/14 13:46:06;;;;;;;24.47;22.17;;;6.20;99.90;;;;;;10505931;28;20224;-79
2022/01/14 13:51:11;;;;;;;24.27;21.77;;;6.20;99.90;;;;;;10527023;28;20316;-78
2022/01/14 13:56:15;;;;;;;28.17;24.90;;;6.20;99.90;;;;;;10538567;28;20228;-79
2022/01/14 14:01:31;;;;;;;27.10;23.00;;;6.20;99.90;;;;;;10516223;28;20193;-79
2022/01/14 14:06:42;;;;;;;28.10;25.00;;;6.30;99.90;;;;;;10513797;28;20188;-80
2022/01/14 14:12:07;;;;;;;33.70;28.70;;;6.30;99.90;;;;;;10495788;28;20212;-80
2022/01/14 14:17:15;;;;;;;27.87;24.87;;;6.20;99.90;;;;;;10492954;28;20212;-76
2022/01/14 14:22:19;;;;;;;25.70;23.03;;;6.10;99.90;;;;;;10502529;28;20315;-79
2022/01/14 14:27:21;;;;;;;31.70;24.77;;;6.00;99.90;;;;;;10507808;28;20189;-78
2022/01/14 14:32:29;;;;;;;27.10;24.23;;;5.90;99.90;;;;;;10482375;28;20244;-77
2022/01/14 14:37:33;;;;;;;25.57;22.93;;;5.90;99.90;;;;;;10481253;28;20201;-78
2022/01/14 14:42:36;;;;;;;27.40;23.43;;;5.90;99.90;;;;;;10463435;28;20285;-78
2022/01/14 14:47:40;;;;;;;25.20;22.60;;;5.90;99.90;;;;;;10481408;28;20208;-78
2022/01/14 14:52:44;;;;;;;24.47;21.87;;;5.80;99.90;;;;;;10499019;28;20615;-78
2022/01/14 14:57:47;;;;;;;27.07;23.80;;;5.80;99.90;;;;;;10497103;28;20203;-78
2022/01/14 15:02:51;;;;;;;23.77;21.27;;;5.70;99.90;;;;;;10499187;28;20216;-78
2022/01/14 15:07:54;;;;;;;27.80;23.53;;;5.60;99.90;;;;;;10479769;28;20670;-77
2022/01/14 15:12:56;;;;;;;24.80;22.20;;;5.50;99.90;;;;;;10464116;28;20585;-77
2022/01/14 15:18:11;;;;;;;24.03;21.40;;;5.40;99.90;;;;;;10479163;28;20201;-77
2022/01/14 15:23:16;;;;;;;28.70;24.20;;;5.40;99.90;;;;;;10479713;28;20549;-77
2022/01/14 15:28:18;;;;;;;23.63;21.23;;;5.40;99.90;;;;;;10479527;28;20189;-77
2022/01/14 15:33:23;;;;;;;24.20;21.10;;;5.30;99.90;;;;;;10479147;28;20307;-77
2022/01/14 15:38:26;;;;;;;23.17;19.93;;;5.30;99.90;;;;;;10496671;28;20200;-76
2022/01/14 15:43:29;;;;;;;22.03;19.63;;;5.20;99.90;;;;;;10496435;28;20208;-77
2022/01/14 15:48:33;;;;;;;25.77;21.00;;;5.20;99.90;;;;;;10496296;28;20610;-77
2022/01/14 15:53:36;;;;;;;25.40;20.70;;;5.10;99.90;;;;;;10478018;28;20255;-78
2022/01/14 15:58:38;;;;;;;26.60;21.37;;;5.00;99.90;;;;;;10480063;28;20192;-80
2022/01/14 16:03:42;;;;;;;22.63;20.33;;;4.90;99.90;;;;;;10480008;28;20627;-78
2022/01/14 16:08:47;;;;;;;26.67;22.77;;;4.90;99.90;;;;;;10503204;28;20194;-77
2022/01/14 16:13:54;;;;;;;29.70;23.40;;;4.90;99.90;;;;;;10512374;28;20242;-78
2022/01/14 16:18:57;;;;;;;26.97;24.10;;;4.80;99.90;;;;;;10523723;28;20595;-79
2022/01/14 16:24:02;;;;;;;60.20;44.27;;;4.80;99.90;;;;;;10504060;28;20240;-80
2022/01/14 16:29:09;;;;;;;41.70;33.87;;;4.80;99.90;;;;;;10502546;28;20226;-78
2022/01/14 16:40:14;;;;;;;40.93;32.30;;;4.80;99.90;;;;;;10451910;28;20189;-78
2022/01/14 16:45:16;;;;;;;33.97;24.47;;;4.80;99.90;;;;;;10498713;28;20722;-79
2022/01/14 16:50:22;;;;;;;34.30;28.33;;;4.80;99.90;;;;;;10478924;28;20217;-78
2022/01/14 16:55:26;;;;;;;48.20;38.87;;;4.80;99.90;;;;;;10495906;28;20251;-78
2022/01/14 17:00:28;;;;;;;58.27;40.63;;;4.70;99.90;;;;;;10481226;28;20514;-78
2022/01/14 17:05:31;;;;;;;61.07;45.97;;;4.70;99.90;;;;;;10480351;28;20205;-78
2022/01/14 17:10:34;;;;;;;70.93;50.90;;;4.70;99.90;;;;;;10483627;28;20227;-78
2022/01/14 17:15:36;;;;;;;87.33;62.97;;;4.70;99.90;;;;;;10484437;28;20323;-77
2022/01/14 17:20:39;;;;;;;30.57;27.20;;;4.70;99.90;;;;;;10492517;28;20192;-76
2022/01/14 17:25:43;;;;;;;33.70;29.57;;;4.60;99.90;;;;;;10466135;28;20266;-76
2022/01/14 17:30:46;;;;;;;32.00;28.03;;;4.50;99.90;;;;;;10491564;28;20267;-76
2022/01/14 17:35:49;;;;;;;34.60;28.10;;;4.50;99.90;;;;;;10475235;28;20231;-76
2022/01/14 17:40:57;;;;;;;31.77;28.30;;;4.50;99.90;;;;;;10503772;28;20216;-79
2022/01/14 17:46:00;;;;;;;33.63;29.70;;;4.50;99.90;;;;;;10469175;28;20301;-78
2022/01/14 17:51:04;;;;;;;37.33;31.50;;;4.40;99.90;;;;;;10491360;28;20199;-78
2022/01/14 17:56:08;;;;;;;39.23;30.50;;;4.30;99.90;;;;;;10503463;28;20627;-80
2022/01/14 18:01:10;;;;;;;37.90;32.30;;;4.30;99.90;;;;;;10528548;28;20188;-79
2022/01/14 18:06:13;;;;;;;40.40;32.33;;;4.30;99.90;;;;;;10495594;28;20193;-78
2022/01/14 18:11:21;;;;;;;38.67;33.00;;;4.30;99.90;;;;;;10534955;28;20223;-78
2022/01/14 18:16:24;;;;;;;35.33;31.57;;;4.30;99.90;;;;;;10537063;28;20208;-79
2022/01/14 18:21:26;;;;;;;32.17;28.27;;;4.20;99.90;;;;;;10522563;28;20275;-78
2022/01/14 18:26:31;;;;;;;35.87;30.90;;;4.10;99.90;;;;;;10502085;28;20189;-79
2022/01/14 18:31:35;;;;;;;33.63;30.10;;;4.10;99.90;;;;;;10516367;28;20594;-79
2022/01/14 18:36:37;;;;;;;32.87;28.10;;;4.00;99.90;;;;;;10512248;28;20296;-79
2022/01/14 18:41:41;;;;;;;32.33;27.70;;;3.90;99.90;;;;;;10509846;28;20213;-78
2022/01/14 18:46:46;;;;;;;41.70;33.13;;;3.80;99.90;;;;;;10518842;28;20287;-80
2022/01/14 18:51:48;;;;;;;37.50;30.90;;;3.80;99.90;;;;;;10524849;22;20224;-77
2022/01/14 18:56:57;;;;;;;33.10;26.90;;;3.80;99.90;;;;;;10460252;28;20228;-78
2022/01/14 19:01:59;;;;;;;30.07;26.77;;;3.80;99.90;;;;;;10461082;28;20590;-77
2022/01/14 19:07:01;;;;;;;28.87;25.87;;;3.90;99.90;;;;;;10442295;28;20243;-78
2022/01/14 19:12:05;;;;;;;31.53;27.80;;;3.90;99.90;;;;;;10442583;28;20707;-77
2022/01/14 19:17:07;;;;;;;29.80;26.60;;;4.00;99.90;;;;;;10442671;28;20240;-77
2022/01/14 19:22:10;;;;;;;29.23;26.30;;;4.00;99.90;;;;;;10442672;28;20213;-77
2022/01/14 19:27:13;;;;;;;29.50;26.50;;;4.00;99.90;;;;;;10461036;28;20197;-78
2022/01/14 19:32:16;;;;;;;28.13;24.87;;;4.00;99.90;;;;;;10460834;28;20237;-77
2022/01/14 19:37:18;;;;;;;31.63;25.40;;;3.90;99.90;;;;;;10459010;28;20213;-78
2022/01/14 19:42:22;;;;;;;25.73;23.13;;;3.90;99.90;;;;;;10460368;28;20214;-78
2022/01/14 19:47:27;;;;;;;27.77;24.90;;;3.90;99.90;;;;;;10460694;28;20637;-78
2022/01/14 19:52:29;;;;;;;25.20;22.50;;;3.90;99.90;;;;;;10459191;28;20229;-78
2022/01/14 19:57:32;;;;;;;23.13;20.73;;;3.90;99.90;;;;;;10461403;28;20249;-78
2022/01/14 20:02:35;;;;;;;27.80;24.43;;;3.90;99.90;;;;;;10447030;28;20296;-77
2022/01/14 20:07:37;;;;;;;28.53;25.63;;;3.90;99.90;;;;;;10461313;28;20284;-78
2022/01/14 20:12:41;;;;;;;29.77;24.53;;;3.90;99.90;;;;;;10421460;28;20217;-78
2022/01/14 20:17:45;;;;;;;26.33;23.50;;;3.90;99.90;;;;;;10436313;28;20213;-78
2022/01/14 20:22:48;;;;;;;32.97;26.87;;;3.80;99.90;;;;;;10454987;28;20220;-78
2022/01/14 20:27:52;;;;;;;26.10;23.50;;;3.70;99.90;;;;;;10436782;28;20197;-77
2022/01/14 20:32:54;;;;;;;25.53;23.03;;;3.70;99.90;;;;;;10453891;28;20586;-77
2022/01/14 20:37:56;;;;;;;26.30;23.50;;;3.70;99.90;;;;;;10454260;28;20658;-77
2022/01/14 20:43:01;;;;;;;26.90;23.80;;;3.70;99.90;;;;;;10435720;28;20713;-77
2022/01/14 20:48:06;;;;;;;25.50;22.90;;;3.60;99.90;;;;;;10453849;28;20196;-77
2022/01/14 20:53:11;;;;;;;26.67;22.90;;;3.60;99.90;;;;;;10453155;28;20640;-77
2022/01/14 20:58:15;;;;;;;26.93;24.23;;;3.60;99.90;;;;;;10434955;28;20264;-77
2022/01/14 21:03:17;;;;;;;26.73;23.83;;;3.60;99.90;;;;;;10453273;28;20295;-77
2022/01/14 21:08:19;;;;;;;28.97;24.50;;;3.60;99.90;;;;;;10418341;28;20193;-77
2022/01/14 21:13:22;;;;;;;27.20;24.10;;;3.60;99.90;;;;;;10453714;28;20239;-77
2022/01/14 21:18:24;;;;;;;26.90;24.10;;;3.50;99.90;;;;;;10453213;28;20244;-77
2022/01/14 21:23:28;;;;;;;26.40;23.70;;;3.50;99.90;;;;;;10436253;28;20589;-77
2022/01/14 21:28:32;;;;;;;29.70;24.30;;;3.50;99.90;;;;;;10436331;28;20197;-76
2022/01/14 21:33:34;;;;;;;27.70;24.90;;;3.50;99.90;;;;;;10437694;28;20217;-78
2022/01/14 21:38:36;;;;;;;32.63;26.80;;;3.40;99.90;;;;;;10421583;28;20197;-77
2022/01/14 21:43:40;;;;;;;32.33;28.00;;;3.40;99.90;;;;;;10454736;28;20577;-77
2022/01/14 21:48:42;;;;;;;33.13;28.20;;;3.30;99.90;;;;;;10434057;28;20228;-76
2022/01/14 21:53:44;;;;;;;30.10;26.80;;;3.30;99.90;;;;;;10451470;28;20696;-77
2022/01/14 21:58:48;;;;;;;30.43;26.53;;;3.30;99.90;;;;;;10451759;28;20197;-76
2022/01/14 22:03:50;;;;;;;28.73;25.80;;;3.30;99.90;;;;;;10451654;28;20715;-77
2022/01/14 22:08:53;;;;;;;35.70;27.40;;;3.30;99.90;;;;;;10439617;28;20201;-77
2022/01/14 22:14:02;;;;;;;28.33;25.30;;;3.30;99.90;;;;;;10441658;28;20563;-78
2022/01/14 22:19:04;;;;;;;28.83;25.73;;;3.30;99.90;;;;;;10440931;28;20216;-78
2022/01/14 22:24:07;;;;;;;27.70;24.80;;;3.30;99.90;;;;;;10441425;28;20228;-77
2022/01/14 22:29:11;;;;;;;30.20;25.03;;;3.20;99.90;;;;;;10458588;28;20631;-77
2022/01/14 22:34:13;;;;;;;28.10;24.47;;;3.20;99.90;;;;;;10458818;28;20612;-77
2022/01/14 22:39:15;;;;;;;27.83;24.90;;;3.20;99.90;;;;;;10440693;28;20217;-77
2022/01/14 22:44:18;;;;;;;28.40;25.40;;;3.20;99.90;;;;;;10440716;28;20225;-77
2022/01/14 22:49:22;;;;;;;27.43;24.53;;;3.10;99.90;;;;;;10470167;28;20672;-77
2022/01/14 22:54:24;;;;;;;32.30;25.63;;;3.10;99.90;;;;;;10457806;28;20260;-77
2022/01/14 22:59:27;;;;;;;29.40;26.03;;;3.10;99.90;;;;;;10444265;28;20288;-77
2022/01/14 23:04:30;;;;;;;29.10;26.07;;;3.10;99.90;;;;;;10457975;28;20213;-77
2022/01/14 23:09:32;;;;;;;27.87;24.80;;;3.10;99.90;;;;;;10458009;28;20738;-77
2022/01/14 23:14:36;;;;;;;27.63;22.90;;;3.10;99.90;;;;;;10457615;28;20368;-77
2022/01/14 23:19:38;;;;;;;29.00;25.90;;;3.10;99.90;;;;;;10437267;28;20201;-77
2022/01/14 23:24:40;;;;;;;28.00;24.93;;;3.00;99.90;;;;;;10457048;28;20221;-77
2022/01/14 23:29:44;;;;;;;26.37;23.57;;;3.00;99.90;;;;;;10466042;28;20292;-77
2022/01/14 23:34:46;;;;;;;26.30;23.60;;;3.00;99.90;;;;;;10422131;28;20703;-77
2022/01/14 23:39:48;;;;;;;26.60;24.00;;;3.00;99.90;;;;;;10456985;28;20198;-77
2022/01/14 23:45:08;;;;;;;28.70;25.10;;;3.00;99.90;;;;;;10456696;28;20760;-77
2022/01/14 23:50:13;;;;;;;29.20;26.20;;;3.00;99.90;;;;;;10438131;28;20204;-77
2022/01/14 23:55:20;;;;;;;26.60;24.00;;;3.00;99.90;;;;;;10438471;28;20236;-77
